• Join FlightAware (Why Join?)
  • Login
  • US Flag 
Trick or treat! (Boo!!) 
06:57PM EDT


 

Airport Tracker/Info


-or-


 

Live Flight TrackerFlight Track Log ✈ CHB6208 ✈ 12-Aug-2014 ✈ ZJHK / HAK - ZUCK / CKG

Flight Track Log - Related Links

Times and Time Zones

All times are in EDT time to prevent confusion due to time zone crossing. See the CHB6208 flight status page for this flight to view local times or setup timezone preferences in your user account.

Time Position Orientation Groundspeed Altitude Reporting Facility
EDT Latitude Longitude Course Direction KTS MPH feet Rate Location/Type
11:30AM 20.5779 110.2261 341° North  Level Estimated
11:31AM 20.6697 110.1927 341° North  Level Estimated
11:32AM 20.7615 110.1592 341° North  Level Estimated
11:33AM 20.8533 110.1257 341° North  Level Estimated
11:34AM 20.9452 110.0921 341° North  Level Estimated
11:35AM 21.0370 110.0586 341° North  Level Estimated
11:36AM 21.1288 110.0249 341° North  Level Estimated
11:37AM 21.2206 109.9913 341° North  Level Estimated
11:38AM 21.3123 109.9576 341° North  Level Estimated
11:39AM 21.4041 109.9238 341° North  Level Estimated
11:40AM 21.4959 109.8900 341° North  Level Estimated
11:41AM 21.5877 109.8562 341° North  Level Estimated
11:42AM 21.6794 109.8223 341° North  Level Estimated
11:43AM 21.7712 109.7884 341° North  Level Estimated
11:44AM 21.8629 109.7544 341° North  Level Estimated
11:45AM 21.9547 109.7204 341° North  Level Estimated
11:46AM 22.0464 109.6863 341° North  Level Estimated
11:47AM 22.1381 109.6522 341° North  Level Estimated
11:48AM 22.2298 109.6181 341° North  Level Estimated
11:49AM 22.3216 109.5839 341° North  Level Estimated
11:50AM 22.4132 109.5496 341° North  Level Estimated
11:51AM 22.5049 109.5154 341° North  Level Estimated
11:52AM 22.5966 109.4810 341° North  Level Estimated
11:53AM 22.6883 109.4466 341° North  Level Estimated
11:54AM 22.7800 109.4122 341° North  Level Estimated
11:55AM 22.8717 109.3778 341° North  Level Estimated
11:56AM 22.9633 109.3432 341° North  Level Estimated
11:57AM 23.0550 109.3087 341° North  Level Estimated
11:58AM 23.1466 109.2741 341° North  Level Estimated
11:59AM 23.2383 109.2394 341° North  Level Estimated
12:00PM 23.3299 109.2047 341° North  Level Estimated
12:01PM 23.4215 109.1700 341° North  Level Estimated
12:02PM 23.5131 109.1352 341° North  Level Estimated
12:03PM 23.6047 109.1003 341° North  Level Estimated
12:04PM 23.6963 109.0655 341° North  Level Estimated
12:05PM 23.7879 109.0305 341° North  Level Estimated
12:06PM 23.8795 108.9955 341° North  Level Estimated
12:07PM 23.9711 108.9605 341° North  Level Estimated
12:08PM 24.0626 108.9254 341° North  Level Estimated
12:09PM 24.1542 108.8903 341° North  Level Estimated
12:10PM 24.2458 108.8550 341° North  Level Estimated
12:11PM 24.3373 108.8198 341° North  Level Estimated
12:12PM 24.4288 108.7845 341° North  Level Estimated
12:13PM 24.5204 108.7492 341° North  Level Estimated
12:14PM 24.6119 108.7138 341° North  Level Estimated
12:15PM 24.7034 108.6783 341° North  Level Estimated
12:16PM 24.7949 108.6428 341° North  Level Estimated
12:17PM 24.8864 108.6073 341° North  Level Estimated
12:18PM 24.9779 108.5717 341° North  Level Estimated
12:19PM 25.0693 108.5360 341° North  Level Estimated
12:20PM 25.1608 108.5003 341° North  Level Estimated
12:21PM 25.2523 108.4645 341° North  Level Estimated
12:22PM 25.3437 108.4287 341° North  Level Estimated
12:23PM 25.4352 108.3928 340° North  Level Estimated
12:24PM 25.5266 108.3569 340° North  Level Estimated
12:25PM 25.6180 108.3209 340° North  Level Estimated
12:26PM 25.7094 108.2849 340° North  Level Estimated
12:27PM 25.8008 108.2488 340° North  Level Estimated
12:28PM 25.8922 108.2126 340° North  Level Estimated
12:29PM 25.9836 108.1765 340° North  Level Estimated
12:30PM 26.0750 108.1402 340° North  Level Estimated
12:31PM 26.1664 108.1039 340° North  Level Estimated
12:32PM 26.2577 108.0675 340° North  Level Estimated
12:33PM 26.3491 108.0311 340° North  Level Estimated
12:34PM 26.4404 107.9946 340° North  Level Estimated
12:35PM 26.5318 107.9580 340° North  Level Estimated
12:36PM 26.6231 107.9214 340° North  Level Estimated
12:37PM 26.7144 107.8848 340° North  Level Estimated
12:38PM 26.8057 107.8480 340° North  Level Estimated
12:39PM 26.8970 107.8112 340° North  Level Estimated
12:40PM 26.9883 107.7744 340° North  Level Estimated
12:41PM 27.0796 107.7375 340° North  Level Estimated
12:42PM 27.1708 107.7005 340° North  Level Estimated
12:43PM 27.2621 107.6635 340° North  Level Estimated
12:44PM 27.3533 107.6264 340° North  Level Estimated
12:45PM 27.4446 107.5893 340° North  Level Estimated
12:46PM 27.5358 107.5521 340° North  Level Estimated
12:47PM 27.6270 107.5148 340° North  Level Estimated
12:48PM 27.7182 107.4775 340° North  Level Estimated
12:49PM 27.8094 107.4401 340° North  Level Estimated
12:50PM 27.9006 107.4026 340° North  Level Estimated
12:51PM 27.9918 107.3651 340° North  Level Estimated
12:52PM 28.0830 107.3276 340° North  Level Estimated
12:53PM 28.1741 107.2899 340° North  Level Estimated
12:54PM 28.2653 107.2522 340° North  Level Estimated
12:55PM 28.3564 107.2144 340° North  Level Estimated
12:56PM 28.4475 107.1766 340° North  Level Estimated
12:57PM 28.5387 107.1387 340° North  Level Estimated
12:58PM 28.6298 107.1007 340° North  Level Estimated
12:59PM 28.7209 107.0627 340° North  Level Estimated
01:00PM 28.8119 107.0246 340° North  Level Estimated
01:01PM 28.9030 106.9864 340° North  Level Estimated
01:02PM 28.9941 106.9482 340° North  Level Estimated
01:03PM 29.0851 106.9099 340° North  Level Estimated
01:04PM 29.1762 106.8715 340° North  Level Estimated
01:05PM 29.2672 106.8331 340° North  Level Estimated
01:06PM 29.3582 106.7945 340° North  Level Estimated
01:07PM 29.4492 106.7560 340° North  Level Estimated
01:08PM 29.5402 106.7173 340° North  Level Estimated
01:09PM 29.6312 106.6786 340° North  Level Estimated
01:10PM 29.7194 106.6410 340° North  Level Estimated
01:11PM 29.7194 106.6410 North  Level Estimated